Time;durP1;ratioP1;P1;durP2;ratioP2;P2;SDS_P1;SDS_P2;PMS_P1;PMS_P2;Temp;Humidity;BMP_temperature;BMP_pressure;BME280_temperature;BME280_humidity;BME280_pressure;Samples;Min_cycle;Max_cycle;Signal;HPM_P1;HPM_P2
2021/06/04 00:00:48;;;;;;;5.25;4.75;;;19.60;99.90;;;;;;5093140;28;20199;-61
2021/06/04 00:03:19;;;;;;;5.57;4.85;;;19.50;99.90;;;;;;5093130;28;20199;-61
2021/06/04 00:05:48;;;;;;;6.15;5.15;;;19.50;99.90;;;;;;5092766;28;20177;-61
2021/06/04 00:08:17;;;;;;;6.22;5.05;;;19.60;99.90;;;;;;5092724;28;20211;-61
2021/06/04 00:10:48;;;;;;;5.55;4.95;;;19.50;99.90;;;;;;5093085;28;20239;-62
2021/06/04 00:13:21;;;;;;;5.18;4.68;;;19.40;99.90;;;;;;5092939;28;20187;-61
2021/06/04 00:15:52;;;;;;;5.38;4.88;;;19.40;99.90;;;;;;5092875;28;20200;-61
2021/06/04 00:18:21;;;;;;;5.85;4.95;;;19.40;99.90;;;;;;5092934;28;20219;-61
2021/06/04 00:20:48;;;;;;;5.28;4.45;;;19.40;99.90;;;;;;5092639;28;20236;-62
2021/06/04 00:23:17;;;;;;;6.90;4.80;;;19.30;99.90;;;;;;5093295;28;20204;-61
2021/06/04 00:25:44;;;;;;;5.18;4.60;;;19.40;99.90;;;;;;5097075;28;20222;-61
2021/06/04 00:28:12;;;;;;;6.60;5.28;;;19.30;99.90;;;;;;5096911;28;20216;-62
2021/06/04 00:30:39;;;;;;;6.72;5.13;;;19.20;99.90;;;;;;5096651;28;20652;-62
2021/06/04 00:33:08;;;;;;;5.65;4.82;;;19.20;99.90;;;;;;5096777;28;20218;-61
2021/06/04 00:35:38;;;;;;;5.35;4.95;;;19.20;99.90;;;;;;5096215;28;20680;-62
2021/06/04 00:38:07;;;;;;;5.40;5.00;;;19.30;99.90;;;;;;5092310;28;20205;-61
2021/06/04 00:40:37;;;;;;;5.70;5.00;;;19.30;99.90;;;;;;5076452;28;20300;-61
2021/06/04 00:43:06;;;;;;;5.78;5.18;;;19.20;99.90;;;;;;5076548;28;20185;-60
2021/06/04 00:45:38;;;;;;;5.65;5.15;;;19.20;99.90;;;;;;5076427;28;20327;-63
2021/06/04 00:48:08;;;;;;;5.22;4.80;;;19.10;99.90;;;;;;5076154;28;20578;-61
2021/06/04 00:50:39;;;;;;;5.57;5.00;;;19.10;99.90;;;;;;5075748;28;20204;-61
2021/06/04 00:53:08;;;;;;;5.63;4.97;;;19.10;99.90;;;;;;5075846;28;20290;-61
2021/06/04 00:55:36;;;;;;;5.32;4.93;;;19.00;99.90;;;;;;5076019;28;20228;-63
2021/06/04 00:58:04;;;;;;;6.63;4.85;;;18.90;99.90;;;;;;5076142;28;20200;-61
2021/06/04 01:00:34;;;;;;;5.07;4.60;;;19.00;99.90;;;;;;5076179;28;20197;-60
2021/06/04 01:03:03;;;;;;;5.40;4.93;;;19.00;99.90;;;;;;5075826;28;20217;-62
2021/06/04 01:05:33;;;;;;;5.40;4.90;;;18.90;99.90;;;;;;5075765;28;20258;-60
2021/06/04 01:08:23;;;;;;;5.43;4.90;;;18.90;99.90;;;;;;5076006;28;20205;-60
2021/06/04 01:11:10;;;;;;;5.53;4.80;;;18.90;99.90;;;;;;5076056;28;20180;-62
2021/06/04 01:13:46;;;;;;;5.97;5.28;;;19.00;99.90;;;;;;5075570;28;20587;-62
2021/06/04 01:16:19;;;;;;;5.93;5.32;;;19.00;99.90;;;;;;5075615;28;20560;-60
2021/06/04 01:19:16;;;;;;;5.72;5.22;;;18.90;99.90;;;;;;5075431;28;20196;-61
2021/06/04 01:21:48;;;;;;;5.85;5.25;;;19.00;99.90;;;;;;5075390;28;20537;-62
2021/06/04 01:24:26;;;;;;;5.70;5.10;;;19.00;99.90;;;;;;5075494;28;20193;-61
2021/06/04 01:27:01;;;;;;;5.38;4.88;;;19.00;99.90;;;;;;5075489;28;20639;-63
2021/06/04 01:29:32;;;;;;;5.57;5.07;;;19.00;99.90;;;;;;5075629;28;20185;-62
2021/06/04 01:32:01;;;;;;;5.13;4.65;;;19.00;99.90;;;;;;5075629;28;20203;-60
2021/06/04 01:34:32;;;;;;;5.15;4.70;;;18.90;99.90;;;;;;5074986;28;20206;-61
2021/06/04 01:37:05;;;;;;;5.57;4.95;;;18.90;99.90;;;;;;5074400;28;20687;-61
2021/06/04 01:39:35;;;;;;;6.03;5.07;;;18.90;99.90;;;;;;5092300;28;20572;-61
2021/06/04 01:42:06;;;;;;;5.63;5.13;;;18.90;99.90;;;;;;5095617;28;20277;-61
2021/06/04 01:44:40;;;;;;;5.30;4.80;;;18.80;99.90;;;;;;5095635;28;20184;-61
2021/06/04 01:47:11;;;;;;;5.68;5.18;;;18.80;99.90;;;;;;5095413;28;20226;-61
2021/06/04 01:49:42;;;;;;;6.50;5.20;;;18.80;99.90;;;;;;5095135;28;20284;-61
2021/06/04 01:52:15;;;;;;;5.57;5.07;;;18.70;99.90;;;;;;5095005;28;20228;-61
2021/06/04 01:54:46;;;;;;;5.68;5.10;;;18.70;99.90;;;;;;5095350;28;20180;-61
2021/06/04 01:57:19;;;;;;;5.82;5.30;;;18.70;99.90;;;;;;5095259;28;20226;-60
2021/06/04 01:59:51;;;;;;;5.32;4.93;;;18.80;99.90;;;;;;5095057;28;20704;-61
2021/06/04 02:02:19;;;;;;;5.35;4.85;;;18.70;99.90;;;;;;5095309;28;20180;-60
2021/06/04 02:04:56;;;;;;;5.35;4.95;;;18.70;99.90;;;;;;5094740;28;20242;-61
2021/06/04 02:07:27;;;;;;;5.07;4.57;;;18.60;99.90;;;;;;5095130;28;20180;-61
2021/06/04 02:09:55;;;;;;;5.65;5.15;;;18.60;99.90;;;;;;5095189;28;20283;-62
2021/06/04 02:12:24;;;;;;;6.20;5.38;;;18.60;99.90;;;;;;5094906;28;20210;-61
2021/06/04 02:14:56;;;;;;;6.05;5.50;;;18.60;99.90;;;;;;5094904;28;20630;-61
2021/06/04 02:17:42;;;;;;;7.20;5.47;;;18.70;99.90;;;;;;5094775;28;20200;-61
2021/06/04 02:20:17;;;;;;;5.70;5.20;;;18.70;99.90;;;;;;5094608;28;20184;-61
2021/06/04 02:22:55;;;;;;;6.07;5.20;;;18.70;99.90;;;;;;5094581;28;20674;-60
2021/06/04 02:25:32;;;;;;;5.90;5.40;;;18.70;99.90;;;;;;5094748;28;20218;-61
2021/06/04 02:28:07;;;;;;;5.25;4.82;;;18.60;99.90;;;;;;5094730;28;20199;-61
2021/06/04 02:30:39;;;;;;;5.90;5.30;;;18.50;99.90;;;;;;5094402;28;20195;-61
2021/06/04 02:33:11;;;;;;;6.05;5.40;;;18.50;99.90;;;;;;5094317;28;20702;-62
2021/06/04 02:35:42;;;;;;;6.72;5.38;;;18.50;99.90;;;;;;5094009;28;20188;-61
2021/06/04 02:38:15;;;;;;;5.53;5.13;;;18.50;99.90;;;;;;5088958;28;20219;-61
2021/06/04 02:40:46;;;;;;;5.53;5.00;;;18.50;99.90;;;;;;5074204;28;20185;-62
2021/06/04 02:43:19;;;;;;;5.28;4.78;;;18.40;99.90;;;;;;5073924;28;20617;-61
2021/06/04 02:45:51;;;;;;;6.55;5.05;;;18.40;99.90;;;;;;5073802;28;20565;-61
2021/06/04 02:48:21;;;;;;;6.10;5.60;;;18.40;99.90;;;;;;5073942;28;20275;-60
2021/06/04 02:50:51;;;;;;;5.63;5.22;;;18.40;99.90;;;;;;5073251;28;20292;-62
2021/06/04 02:53:25;;;;;;;4.95;4.50;;;18.40;99.90;;;;;;5073879;28;20217;-61
2021/06/04 02:56:17;;;;;;;5.60;5.07;;;18.40;99.90;;;;;;5073539;28;20185;-61
2021/06/04 02:58:49;;;;;;;5.78;5.28;;;18.40;99.90;;;;;;5073554;28;20643;-62
2021/06/04 03:01:19;;;;;;;5.65;5.15;;;18.40;99.90;;;;;;5073808;28;20195;-61
2021/06/04 03:03:50;;;;;;;6.10;5.50;;;18.30;99.90;;;;;;5073820;28;20209;-61
2021/06/04 03:06:21;;;;;;;5.80;5.30;;;18.40;99.90;;;;;;5073181;28;20189;-61
2021/06/04 03:08:50;;;;;;;5.88;5.38;;;18.30;99.90;;;;;;5073728;28;20181;-61
2021/06/04 03:11:20;;;;;;;6.65;5.45;;;18.30;99.90;;;;;;5073577;28;20283;-62
2021/06/04 03:13:49;;;;;;;5.68;5.18;;;18.40;99.90;;;;;;5073900;28;20200;-61
2021/06/04 03:16:21;;;;;;;6.15;5.55;;;18.40;99.90;;;;;;5073203;28;20211;-60
2021/06/04 03:18:53;;;;;;;6.07;5.47;;;18.40;99.90;;;;;;5073520;28;20188;-60
2021/06/04 03:21:26;;;;;;;6.32;5.53;;;18.40;99.90;;;;;;5073343;28;20187;-61
2021/06/04 03:23:54;;;;;;;6.10;5.50;;;18.40;99.90;;;;;;5073563;28;20505;-61
2021/06/04 03:26:25;;;;;;;5.78;5.18;;;18.40;99.90;;;;;;5073092;28;20204;-61
2021/06/04 03:28:57;;;;;;;6.32;5.75;;;18.40;99.90;;;;;;5073192;28;20701;-62
2021/06/04 03:31:27;;;;;;;7.15;5.55;;;18.40;99.90;;;;;;5073208;28;20207;-61
2021/06/04 03:33:55;;;;;;;6.55;5.38;;;18.40;99.90;;;;;;5073289;28;20242;-62
2021/06/04 03:36:28;;;;;;;6.95;5.55;;;18.40;99.90;;;;;;5072772;28;20207;-61
2021/06/04 03:38:55;;;;;;;6.78;5.40;;;18.40;99.90;;;;;;5084802;28;20279;-61
2021/06/04 03:41:26;;;;;;;6.70;5.85;;;18.50;99.90;;;;;;5093112;28;20725;-61
2021/06/04 03:43:55;;;;;;;6.05;5.20;;;18.40;99.90;;;;;;5093557;28;20192;-61
2021/06/04 03:46:22;;;;;;;6.43;5.68;;;18.40;99.90;;;;;;5093243;28;20200;-61
2021/06/04 03:48:50;;;;;;;6.72;5.97;;;18.40;99.90;;;;;;5092933;28;20737;-61
2021/06/04 03:51:31;;;;;;;5.65;5.15;;;18.40;99.90;;;;;;5092492;28;20707;-60
2021/06/04 03:53:59;;;;;;;7.47;5.60;;;18.40;99.90;;;;;;5092957;28;20195;-61
2021/06/04 03:56:29;;;;;;;6.70;6.00;;;18.40;99.90;;;;;;5093129;28;20184;-62
2021/06/04 03:58:58;;;;;;;6.30;5.50;;;18.50;99.90;;;;;;5092313;28;20200;-61
2021/06/04 04:01:30;;;;;;;6.00;5.50;;;18.60;99.90;;;;;;5092987;28;20204;-61
2021/06/04 04:03:58;;;;;;;5.65;5.15;;;18.60;99.90;;;;;;5092826;28;20180;-61
2021/06/04 04:06:26;;;;;;;7.93;5.93;;;18.60;99.90;;;;;;5092482;28;20206;-61
2021/06/04 04:08:53;;;;;;;6.72;5.82;;;18.60;99.90;;;;;;5092749;28;20204;-62
2021/06/04 04:11:21;;;;;;;6.88;5.32;;;18.70;99.90;;;;;;5092747;28;20210;-62
2021/06/04 04:13:49;;;;;;;6.03;5.50;;;18.60;99.90;;;;;;5092945;28;20195;-61
2021/06/04 04:16:18;;;;;;;9.13;5.90;;;18.60;99.90;;;;;;5092871;28;20202;-61
2021/06/04 04:18:45;;;;;;;6.20;5.60;;;18.70;99.90;;;;;;5092531;28;20311;-61
2021/06/04 04:21:14;;;;;;;5.68;5.20;;;18.70;99.90;;;;;;5092640;28;20227;-62
2021/06/04 04:23:43;;;;;;;5.60;5.10;;;18.80;99.90;;;;;;5092794;28;20200;-60
2021/06/04 04:26:14;;;;;;;5.85;5.30;;;18.80;99.90;;;;;;5092760;28;20287;-61
2021/06/04 04:28:45;;;;;;;5.90;5.38;;;18.80;99.90;;;;;;5092839;28;20188;-61
2021/06/04 04:31:16;;;;;;;5.53;5.07;;;18.80;99.90;;;;;;5092814;28;20572;-61
2021/06/04 04:33:45;;;;;;;6.47;5.65;;;18.80;99.90;;;;;;5092782;28;20188;-61
2021/06/04 04:36:15;;;;;;;6.07;5.10;;;18.80;99.90;;;;;;5092295;28;20200;-62
2021/06/04 04:38:42;;;;;;;6.10;5.60;;;18.90;99.90;;;;;;5082421;28;20216;-62
2021/06/04 04:41:10;;;;;;;5.55;5.00;;;18.90;99.90;;;;;;5071819;28;20271;-62
2021/06/04 04:43:41;;;;;;;5.90;5.35;;;18.90;99.90;;;;;;5071919;28;20230;-61
2021/06/04 04:46:11;;;;;;;6.18;5.57;;;18.90;99.90;;;;;;5072442;28;20205;-62
2021/06/04 04:48:39;;;;;;;5.80;5.28;;;19.00;99.90;;;;;;5072351;28;20272;-61
2021/06/04 04:51:08;;;;;;;6.32;5.72;;;19.00;99.90;;;;;;5071809;28;20236;-62
2021/06/04 04:53:36;;;;;;;5.72;5.22;;;19.10;99.90;;;;;;5071969;28;20190;-62
2021/06/04 04:56:05;;;;;;;8.38;5.78;;;19.10;99.90;;;;;;5071221;28;20499;-61
2021/06/04 04:58:33;;;;;;;6.22;5.63;;;19.10;99.90;;;;;;5071916;28;20238;-61
2021/06/04 05:01:02;;;;;;;6.68;5.85;;;19.00;99.90;;;;;;5071565;28;20288;-62
2021/06/04 05:03:29;;;;;;;6.38;5.75;;;19.10;99.90;;;;;;5072332;28;20196;-62
2021/06/04 05:05:57;;;;;;;8.27;5.88;;;19.10;99.90;;;;;;5071678;28;20227;-61
2021/06/04 05:08:25;;;;;;;7.40;5.57;;;19.10;99.90;;;;;;5071821;28;20223;-61
2021/06/04 05:10:54;;;;;;;6.05;5.45;;;19.10;99.90;;;;;;5074992;28;20208;-61
2021/06/04 05:13:21;;;;;;;6.97;6.28;;;19.20;99.90;;;;;;5075554;28;20215;-61
2021/06/04 05:15:49;;;;;;;10.90;5.90;;;19.10;99.90;;;;;;5075328;28;20196;-61
2021/06/04 05:18:17;;;;;;;6.18;5.45;;;19.20;99.90;;;;;;5075589;28;20220;-61
2021/06/04 05:20:47;;;;;;;6.00;5.40;;;19.20;99.90;;;;;;5075345;28;20616;-62
2021/06/04 05:23:17;;;;;;;7.45;5.30;;;19.30;99.90;;;;;;5075302;28;20196;-62
2021/06/04 05:25:49;;;;;;;5.50;5.00;;;19.40;99.90;;;;;;5075425;28;20668;-61
2021/06/04 05:28:20;;;;;;;6.95;5.22;;;19.50;99.90;;;;;;5075609;28;20180;-61
2021/06/04 05:30:52;;;;;;;7.30;5.07;;;19.60;99.90;;;;;;5075650;28;20227;-62
2021/06/04 05:33:21;;;;;;;5.45;4.85;;;19.90;99.90;;;;;;5075743;28;20231;-61
2021/06/04 05:35:49;;;;;;;5.72;4.70;;;20.00;99.90;;;;;;5075193;28;20188;-62
2021/06/04 05:38:17;;;;;;;5.38;4.72;;;19.90;99.90;;;;;;5080978;28;20578;-62
2021/06/04 05:40:48;;;;;;;5.88;4.70;;;20.00;99.90;;;;;;5095144;28;20200;-63
2021/06/04 05:43:19;;;;;;;4.95;4.47;;;19.90;99.90;;;;;;5095266;28;20188;-61
2021/06/04 05:45:48;;;;;;;5.35;4.85;;;19.80;99.90;;;;;;5095237;28;20717;-61
2021/06/04 05:48:17;;;;;;;7.57;5.22;;;19.90;99.90;;;;;;5095357;28;20562;-62
2021/06/04 05:50:48;;;;;;;5.80;4.65;;;20.10;99.90;;;;;;5095220;28;20200;-62
2021/06/04 05:53:17;;;;;;;6.55;5.40;;;20.00;99.90;;;;;;5074998;28;20276;-62
2021/06/04 05:55:47;;;;;;;5.82;5.07;;;20.00;99.90;;;;;;5074975;28;20295;-62
2021/06/04 05:58:18;;;;;;;6.28;5.18;;;20.10;99.90;;;;;;5074968;28;20217;-61
2021/06/04 06:00:47;;;;;;;6.75;5.10;;;20.00;99.90;;;;;;5075114;28;20189;-62
2021/06/04 06:03:16;;;;;;;5.57;5.15;;;19.90;99.90;;;;;;5074807;28;20680;-61
2021/06/04 06:05:44;;;;;;;6.13;5.07;;;19.90;99.90;;;;;;5074688;28;20291;-61
2021/06/04 06:08:12;;;;;;;6.82;4.72;;;19.90;99.90;;;;;;5074634;28;20205;-61
2021/06/04 06:10:40;;;;;;;6.90;4.88;;;19.90;99.90;;;;;;5074770;28;20283;-61
2021/06/04 06:13:09;;;;;;;6.03;5.00;;;19.90;99.90;;;;;;5074602;28;20226;-62
2021/06/04 06:15:38;;;;;;;5.68;5.07;;;20.10;99.90;;;;;;5073777;28;20212;-60
2021/06/04 06:18:07;;;;;;;5.30;4.80;;;20.00;99.90;;;;;;5074272;28;20227;-62
2021/06/04 06:20:37;;;;;;;6.45;5.10;;;19.90;99.90;;;;;;5074299;28;20196;-62
2021/06/04 06:23:05;;;;;;;5.75;5.07;;;19.90;99.90;;;;;;5074009;28;20181;-60
2021/06/04 06:25:35;;;;;;;9.35;5.07;;;19.90;99.90;;;;;;5074357;28;20196;-61
2021/06/04 06:28:04;;;;;;;5.55;4.95;;;20.00;99.90;;;;;;5074438;28;20200;-61
2021/06/04 06:30:33;;;;;;;5.60;4.80;;;20.00;99.90;;;;;;5074074;28;20696;-61
2021/06/04 06:33:02;;;;;;;6.25;5.25;;;20.10;99.90;;;;;;5074643;28;20598;-62
2021/06/04 06:35:32;;;;;;;5.90;5.30;;;20.10;99.90;;;;;;5073892;28;20201;-61
2021/06/04 06:38:00;;;;;;;7.15;5.32;;;20.10;99.90;;;;;;5070300;28;20304;-62
2021/06/04 06:40:29;;;;;;;7.82;5.47;;;20.20;99.90;;;;;;5054316;28;20205;-60
2021/06/04 06:42:57;;;;;;;5.57;4.85;;;20.30;99.90;;;;;;5054231;28;20197;-61
2021/06/04 06:45:29;;;;;;;6.55;4.50;;;20.50;99.90;;;;;;5053787;28;20560;-60
2021/06/04 06:47:58;;;;;;;6.05;5.10;;;20.50;99.90;;;;;;5053787;28;20288;-62
2021/06/04 06:50:29;;;;;;;5.47;4.97;;;20.80;99.90;;;;;;5053780;28;20244;-62
2021/06/04 06:52:57;;;;;;;5.05;4.65;;;20.90;99.90;;;;;;5071747;28;20224;-61
2021/06/04 06:55:25;;;;;;;6.82;4.95;;;21.00;99.90;;;;;;5073576;28;20205;-61
2021/06/04 06:57:52;;;;;;;5.13;4.72;;;21.10;99.90;;;;;;5073694;28;20316;-62
2021/06/04 07:00:24;;;;;;;5.28;4.70;;;21.10;99.90;;;;;;5073497;28;20526;-61
2021/06/04 07:02:52;;;;;;;5.03;4.50;;;21.30;99.90;;;;;;5073516;28;20619;-60
2021/06/04 07:05:22;;;;;;;7.38;5.78;;;21.40;99.90;;;;;;5073058;28;20640;-61
2021/06/04 07:07:49;;;;;;;7.65;5.07;;;21.50;99.90;;;;;;5073414;28;20662;-61
2021/06/04 07:10:28;;;;;;;5.90;4.93;;;21.70;99.90;;;;;;5073559;28;20200;-62
2021/06/04 07:12:56;;;;;;;6.05;4.95;;;21.60;99.90;;;;;;5073550;28;20187;-61
2021/06/04 07:15:25;;;;;;;5.85;4.55;;;21.70;99.90;;;;;;5073442;28;20197;-61
2021/06/04 07:17:54;;;;;;;5.68;5.18;;;21.70;99.90;;;;;;5073501;28;20219;-61
2021/06/04 07:20:23;;;;;;;5.32;4.60;;;21.80;99.90;;;;;;5073135;28;20292;-62
2021/06/04 07:22:52;;;;;;;5.63;5.10;;;21.70;99.90;;;;;;5073105;28;20207;-61
2021/06/04 07:25:21;;;;;;;6.45;4.68;;;21.70;99.90;;;;;;5073200;28;20700;-61
2021/06/04 07:27:49;;;;;;;7.45;4.60;;;21.70;99.90;;;;;;5072926;28;20675;-62
2021/06/04 07:30:20;;;;;;;7.50;4.55;;;21.70;99.90;;;;;;5073165;28;20626;-61
2021/06/04 07:32:48;;;;;;;4.85;4.45;;;21.60;99.90;;;;;;5072271;28;20281;-62
2021/06/04 07:35:19;;;;;;;5.05;4.60;;;21.50;99.90;;;;;;5072566;28;20233;-62
2021/06/04 07:37:48;;;;;;;7.15;5.35;;;21.60;99.90;;;;;;5074985;28;20272;-60
2021/06/04 07:40:19;;;;;;;9.20;5.05;;;21.70;99.90;;;;;;5093246;28;20227;-61
2021/06/04 07:42:46;;;;;;;8.38;4.97;;;21.80;99.90;;;;;;5093284;28;20267;-61
2021/06/04 07:45:18;;;;;;;6.38;5.00;;;21.90;99.90;;;;;;5093032;28;20192;-61
2021/06/04 07:47:46;;;;;;;5.75;5.10;;;22.00;99.90;;;;;;5092872;28;20207;-62
2021/06/04 07:50:14;;;;;;;5.43;4.32;;;21.90;99.90;;;;;;5092880;28;20200;-62
2021/06/04 07:52:41;;;;;;;7.32;4.97;;;22.00;99.90;;;;;;5092337;28;20227;-61
2021/06/04 07:55:12;;;;;;;8.25;5.28;;;22.20;99.90;;;;;;5077886;28;20215;-63
2021/06/04 07:57:40;;;;;;;6.22;4.85;;;22.40;99.90;;;;;;5049714;28;20186;-63
2021/06/04 08:00:11;;;;;;;7.53;4.95;;;22.60;99.90;;;;;;5048951;28;20658;-63
2021/06/04 08:02:40;;;;;;;8.77;5.07;;;22.70;99.90;;;;;;5049734;28;20194;-64
2021/06/04 08:05:09;;;;;;;5.80;4.88;;;22.80;99.90;;;;;;5049448;28;20201;-65
2021/06/04 08:07:36;;;;;;;5.75;5.18;;;22.90;99.90;;;;;;5049570;28;20677;-62
2021/06/04 08:10:04;;;;;;;5.65;4.70;;;22.80;99.90;;;;;;5049731;28;20197;-61
2021/06/04 08:12:33;;;;;;;4.97;4.50;;;22.70;99.90;;;;;;5049770;28;20284;-61
2021/06/04 08:15:04;;;;;;;5.13;4.72;;;22.70;99.90;;;;;;5049430;28;20204;-61
2021/06/04 08:17:31;;;;;;;5.93;5.32;;;22.70;99.90;;;;;;5049680;28;20276;-62
2021/06/04 08:19:59;;;;;;;6.30;5.53;;;22.70;99.90;;;;;;5048905;28;20232;-61
2021/06/04 08:22:26;;;;;;;5.85;5.35;;;22.80;99.90;;;;;;5049437;28;20225;-61
2021/06/04 08:24:54;;;;;;;8.13;4.50;;;23.00;99.90;;;;;;5049604;28;20197;-62
2021/06/04 08:27:21;;;;;;;8.27;4.75;;;23.10;99.90;;;;;;5049281;28;20673;-62
2021/06/04 08:29:53;;;;;;;7.22;4.95;;;23.30;99.90;;;;;;5049356;28;20661;-62
2021/06/04 08:32:21;;;;;;;7.20;5.30;;;23.60;99.90;;;;;;5049551;28;20620;-62
2021/06/04 08:34:48;;;;;;;7.53;4.82;;;24.00;99.90;;;;;;5049607;28;20251;-63
2021/06/04 08:37:16;;;;;;;6.63;4.88;;;24.30;99.90;;;;;;5049046;28;20567;-61
2021/06/04 08:39:44;;;;;;;6.18;5.47;;;24.60;99.90;;;;;;5085811;28;20311;-63
2021/06/04 08:42:29;;;;;;;6.90;5.43;;;25.00;99.90;;;;;;5089537;28;20299;-64
2021/06/04 08:45:24;;;;;;;5.85;4.68;;;25.30;99.90;;;;;;5090943;28;20188;-65
2021/06/04 08:47:57;;;;;;;4.57;4.20;;;25.50;99.90;;;;;;5090948;28;20706;-63
2021/06/04 08:50:35;;;;;;;5.18;4.70;;;25.80;99.90;;;;;;5092993;28;20592;-64
2021/06/04 08:53:12;;;;;;;5.07;4.50;;;26.30;99.90;;;;;;5092877;28;20622;-64
2021/06/04 08:55:44;;;;;;;7.22;4.90;;;26.60;99.90;;;;;;5093176;28;20230;-62
2021/06/04 08:58:26;;;;;;;5.63;4.70;;;27.00;99.90;;;;;;5092784;28;20188;-60
2021/06/04 09:00:59;;;;;;;6.43;4.53;;;27.10;99.90;;;;;;5092764;28;20638;-62
2021/06/04 09:03:31;;;;;;;5.32;4.93;;;26.80;99.90;;;;;;5093038;28;20215;-61
2021/06/04 09:06:02;;;;;;;5.18;4.75;;;26.50;99.90;;;;;;5092939;28;20300;-62
2021/06/04 09:08:34;;;;;;;7.30;4.85;;;26.20;99.90;;;;;;5092219;28;20210;-63
2021/06/04 09:11:05;;;;;;;6.07;5.15;;;26.00;99.90;;;;;;5092828;28;20208;-63
2021/06/04 09:13:35;;;;;;;5.53;4.63;;;26.00;99.90;;;;;;5093054;28;20287;-62
2021/06/04 09:16:08;;;;;;;5.47;4.97;;;26.00;99.90;;;;;;5092771;28;20220;-63
2021/06/04 09:18:43;;;;;;;7.03;5.13;;;26.00;99.90;;;;;;5092746;28;20204;-64
2021/06/04 09:21:14;;;;;;;6.53;4.80;;;26.00;99.90;;;;;;5092263;28;20241;-65
2021/06/04 09:23:44;;;;;;;4.63;4.22;;;26.20;99.90;;;;;;5092154;28;20770;-64
2021/06/04 09:26:14;;;;;;;4.95;4.55;;;26.30;99.90;;;;;;5092806;28;20195;-65
2021/06/04 09:28:47;;;;;;;6.07;5.25;;;26.40;99.90;;;;;;5092277;28;20531;-65
2021/06/04 09:31:27;;;;;;;5.68;5.15;;;26.60;99.90;;;;;;5092179;28;20215;-60
2021/06/04 09:33:58;;;;;;;5.28;4.78;;;26.70;99.90;;;;;;5092310;28;20249;-63
2021/06/04 09:36:28;;;;;;;6.80;5.38;;;26.80;99.90;;;;;;5092008;28;20211;-63
2021/06/04 09:39:20;;;;;;;5.38;4.93;;;26.60;99.90;;;;;;5080225;28;20209;-66
2021/06/04 09:41:48;;;;;;;6.03;5.28;;;26.50;99.90;;;;;;5072160;28;20267;-68
2021/06/04 09:44:27;;;;;;;6.35;4.60;;;26.70;99.90;;;;;;5071770;28;20652;-66
2021/06/04 09:47:00;;;;;;;6.13;5.43;;;26.90;99.90;;;;;;5072131;28;20181;-66
2021/06/04 09:49:31;;;;;;;8.60;5.22;;;27.20;99.90;;;;;;5071937;28;20181;-66
2021/06/04 09:52:21;;;;;;;5.47;5.07;;;27.50;99.90;;;;;;5071593;28;20331;-66
2021/06/04 09:55:19;;;;;;;9.55;5.00;;;27.70;99.90;;;;;;5071943;28;20181;-66
2021/06/04 09:58:00;;;;;;;7.50;4.90;;;27.80;99.90;;;;;;5070082;28;20291;-64
2021/06/04 10:00:31;;;;;;;8.85;5.22;;;27.90;99.90;;;;;;5071475;28;20691;-61
2021/06/04 10:03:55;;;;;;;8.20;5.35;;;28.00;99.90;;;;;;5065150;28;20738;-62
2021/06/04 10:06:35;;;;;;;5.95;5.30;;;27.90;99.90;;;;;;5078975;28;20219;-61
2021/06/04 10:09:21;;;;;;;6.88;5.63;;;27.50;99.90;;;;;;5089148;28;20643;-60
2021/06/04 10:11:58;;;;;;;5.90;5.10;;;27.40;99.90;;;;;;5070979;28;20185;-62
2021/06/04 10:14:38;;;;;;;6.20;5.60;;;27.40;99.90;;;;;;5083140;28;20253;-61
2021/06/04 10:17:38;;;;;;;6.18;5.57;;;27.60;99.90;;;;;;5091416;28;20227;-61
2021/06/04 10:20:30;;;;;;;7.20;5.18;;;27.80;99.90;;;;;;5091080;28;20651;-61
2021/06/04 10:23:07;;;;;;;9.38;5.63;;;27.90;99.90;;;;;;5080139;28;20193;-60
2021/06/04 10:25:46;;;;;;;6.72;5.40;;;27.70;99.90;;;;;;5070867;28;20558;-60
2021/06/04 10:28:37;;;;;;;6.68;5.97;;;27.60;99.90;;;;;;5071306;28;20276;-61
2021/06/04 10:31:34;;;;;;;6.35;5.13;;;27.80;99.90;;;;;;5071045;28;20181;-60
2021/06/04 10:34:11;;;;;;;7.40;5.72;;;28.00;99.90;;;;;;5071281;28;20259;-61
2021/06/04 10:36:41;;;;;;;7.50;5.68;;;27.90;99.90;;;;;;5070848;28;20283;-61
2021/06/04 10:39:15;;;;;;;7.53;6.18;;;27.70;99.90;;;;;;5075173;28;20223;-61
2021/06/04 10:41:52;;;;;;;6.50;5.75;;;27.70;99.90;;;;;;5090946;28;20184;-61
2021/06/04 10:44:26;;;;;;;6.80;6.20;;;27.60;99.90;;;;;;5091141;28;20187;-63
2021/06/04 10:47:00;;;;;;;6.57;5.95;;;27.60;99.90;;;;;;5091146;28;20186;-62
2021/06/04 10:49:42;;;;;;;6.82;5.43;;;27.30;99.90;;;;;;5090592;28;20211;-62
2021/06/04 10:52:19;;;;;;;7.82;5.78;;;27.20;99.90;;;;;;5090432;28;20331;-62
2021/06/04 10:55:01;;;;;;;6.78;5.60;;;27.40;99.90;;;;;;5090732;28;20184;-62
2021/06/04 10:57:32;;;;;;;8.38;5.90;;;27.70;99.90;;;;;;5090642;28;20283;-61
2021/06/04 11:00:06;;;;;;;6.18;5.57;;;27.90;99.90;;;;;;5090625;28;20315;-61
2021/06/04 11:02:40;;;;;;;6.03;5.40;;;28.10;99.90;;;;;;5072163;28;20715;-61
2021/06/04 11:05:18;;;;;;;5.65;5.15;;;28.30;99.90;;;;;;5066340;28;20204;-62
2021/06/04 11:07:53;;;;;;;8.27;5.80;;;28.50;99.90;;;;;;5070088;28;20191;-61
2021/06/04 11:10:28;;;;;;;7.55;6.30;;;28.50;99.90;;;;;;5070395;28;20191;-62
2021/06/04 11:13:10;;;;;;;6.85;6.15;;;28.30;99.90;;;;;;5071723;28;20287;-62
2021/06/04 11:15:55;;;;;;;5.72;5.22;;;28.00;99.90;;;;;;5090176;28;20657;-61
2021/06/04 11:18:38;;;;;;;6.68;6.03;;;27.80;99.90;;;;;;5090091;28;20192;-62
2021/06/04 11:21:16;;;;;;;6.20;5.50;;;27.70;99.90;;;;;;5089989;28;20212;-62
2021/06/04 11:23:48;;;;;;;5.53;5.03;;;27.60;99.90;;;;;;5090477;28;20270;-62
2021/06/04 11:26:22;;;;;;;5.90;5.40;;;27.40;99.90;;;;;;5090022;28;20185;-62
2021/06/04 11:28:56;;;;;;;6.53;5.93;;;27.50;99.90;;;;;;5070340;28;20279;-62
2021/06/04 11:31:33;;;;;;;6.20;5.60;;;27.70;99.90;;;;;;5069832;28;20271;-62
2021/06/04 11:34:05;;;;;;;5.35;4.95;;;27.70;99.90;;;;;;5070091;28;20518;-62
2021/06/04 11:36:41;;;;;;;6.57;5.50;;;27.60;99.90;;;;;;5065911;28;20288;-63
2021/06/04 11:39:14;;;;;;;6.90;5.82;;;27.70;99.90;;;;;;5068704;28;20196;-63
2021/06/04 11:41:48;;;;;;;8.02;5.65;;;27.70;99.90;;;;;;5068668;28;20681;-62
2021/06/04 11:44:25;;;;;;;6.68;5.63;;;27.80;99.90;;;;;;5069307;28;20185;-62
2021/06/04 11:47:33;;;;;;;6.00;5.47;;;27.90;99.90;;;;;;5067260;28;20703;-62
2021/06/04 11:50:30;;;;;;;7.20;5.47;;;28.10;99.90;;;;;;5068431;28;20192;-63
2021/06/04 11:53:33;;;;;;;9.80;6.03;;;28.40;99.90;;;;;;5068881;28;20299;-62
2021/06/04 11:56:31;;;;;;;5.93;5.43;;;28.80;99.90;;;;;;5069144;28;20204;-62
2021/06/04 11:59:00;;;;;;;9.27;5.45;;;28.80;99.90;;;;;;5069152;28;20206;-62
2021/06/04 12:02:01;;;;;;;6.05;5.50;;;29.20;99.90;;;;;;5069223;28;20220;-62
2021/06/04 12:04:33;;;;;;;7.80;5.63;;;29.30;99.90;;;;;;5069359;28;20193;-62
2021/06/04 12:07:04;;;;;;;5.55;5.05;;;29.30;99.90;;;;;;5069197;28;20200;-63
2021/06/04 12:09:50;;;;;;;6.75;5.40;;;29.30;99.90;;;;;;5069286;28;20274;-63
2021/06/04 12:13:01;;;;;;;7.22;5.40;;;29.50;99.90;;;;;;5069611;28;20189;-63
2021/06/04 12:15:45;;;;;;;5.57;5.07;;;29.70;99.90;;;;;;5049394;28;20277;-62
2021/06/04 12:18:55;;;;;;;5.50;4.88;;;29.90;99.90;;;;;;5049449;28;20181;-63
2021/06/04 12:22:00;;;;;;;5.57;4.65;;;29.90;99.90;;;;;;5048825;28;20831;-61
2021/06/04 12:24:53;;;;;;;5.50;5.00;;;30.00;99.90;;;;;;5049518;28;20205;-62
2021/06/04 12:27:47;;;;;;;4.13;3.83;;;30.00;99.90;;;;;;5044507;28;20589;-61
2021/06/04 12:30:55;;;;;;;3.78;3.47;;;29.90;99.90;;;;;;5048798;28;20182;-63
2021/06/04 12:33:54;;;;;;;4.20;3.90;;;29.80;99.90;;;;;;5048967;28;20220;-62
2021/06/04 12:37:00;;;;;;;5.13;3.83;;;29.80;99.90;;;;;;5064263;28;20205;-62
2021/06/04 12:39:42;;;;;;;3.50;3.30;;;29.90;99.90;;;;;;5069102;28;20218;-63
2021/06/04 12:42:35;;;;;;;3.65;3.22;;;29.90;99.90;;;;;;5068903;28;20576;-62
2021/06/04 12:45:09;;;;;;;3.50;3.20;;;29.80;99.90;;;;;;5066181;28;20295;-63
2021/06/04 12:47:47;;;;;;;4.00;3.60;;;29.80;99.90;;;;;;5069162;28;20188;-62
2021/06/04 12:50:21;;;;;;;3.72;3.40;;;29.70;99.90;;;;;;5068989;28;20222;-64
2021/06/04 12:52:50;;;;;;;4.80;3.70;;;29.50;99.90;;;;;;5068556;28;20841;-64
2021/06/04 12:55:22;;;;;;;4.03;3.72;;;29.10;99.90;;;;;;5068687;28;20201;-63
2021/06/04 12:57:51;;;;;;;4.30;3.88;;;29.00;99.90;;;;;;5068372;28;20280;-66
2021/06/04 13:00:28;;;;;;;4.10;3.70;;;28.80;99.90;;;;;;5068394;28;20231;-66
2021/06/04 13:03:07;;;;;;;4.40;4.00;;;28.60;99.90;;;;;;5069115;28;20588;-66
2021/06/04 13:05:36;;;;;;;5.00;3.80;;;28.30;99.90;;;;;;5068636;28;20283;-67
2021/06/04 13:08:09;;;;;;;3.90;3.53;;;28.00;99.90;;;;;;5068651;28;20244;-67
2021/06/04 13:10:47;;;;;;;4.10;3.80;;;27.70;99.90;;;;;;5068898;28;20184;-72
2021/06/04 13:13:20;;;;;;;3.85;3.60;;;27.40;99.90;;;;;;5072803;28;20192;-72
2021/06/04 13:15:48;;;;;;;5.47;3.97;;;27.20;99.90;;;;;;5089247;28;20180;-70
2021/06/04 13:18:21;;;;;;;4.90;3.88;;;27.10;99.90;;;;;;5088783;28;20206;-72
2021/06/04 13:20:51;;;;;;;4.40;4.00;;;27.10;99.90;;;;;;5088489;28;20570;-69